logo
Search for airport 
image banner adimage banner adimage banner ad
image banner ad

OS63 - Marj Ruhayyil Air Base

Located in Marj Ruhayyil, Syrian Arab Republic

ICAO - OS63, IATA -

Data provided by Airmate  

General information

Coordinates: N33°17'11" E36°27'27"
Elevation is 2162 feet MSL.
Magnetic variation is 5° East
View others Airports in Damascus Governorate

Operational data

Special qualification required
Current time UTC:
Current local time:
Weather at : OSDI - Damascus / International ( 15 km )
METAR: OSDI 170600Z 00000KT CAVOK 21/07 Q1016
TAF: OSDI 170500Z 1706/1812 VRB03KT CAVOK
View NOTAMs / SUP AIP / TFR affecting this airport [VIEW]
Communications frequencies: [VIEW]

Runways:

RWY identifierQFULength (ft)Width (ft)SurfaceLDA (ft)
069820150ASP
249820150ASP

Airport contact information

Address: Marj Ruhayyil Syrian Arab Republic

Satellite view of OS63